Terminal Aerodrome Forecast
Issued by NWS Cleveland, OH

Home | Current Version | Previous Version | Graphics & Text | Print | Product List | Glossary On
Versions: 1 2 3 4 5 6 7 8 9 10 11 12 13 14 15 16 17 18 19 20 21 22 23 24 25 26
000
FTUS41 KCLE 011700
TAFYNG
TAF
KYNG 011740Z 0118/0218 20007KT 3SM -SN BKN015 OVC025
      TEMPO 0118/0121 1SM -SN OVC009
     FM012100 25006KT 1 1/2SM -SN OVC010
     FM020200 28006KT 4SM -SN OVC015
     FM020500 28008KT 6SM -SHSN OVC015
     FM021400 28010KT P6SM BKN020=

USA.gov is the U.S. government's official web portal to all federal, state and local government web resources and services.